Aérodrome :
LOGIN :

S'inscrire | Disclaimer

   EN    FR    IT 

 










Légende :    VFR   VFR Marginal   IFR   IFR Intensif   IFR Très Intensif
Visi : 
Plafond : 
>= 8 km
>= 3000ft
5 à 8 km
1000 à 3000 ft
1500m à 5 km
500 à 1000 ft
800 à 1500m
200 à 500 ft
< 800m
< 200 ft
Symboles :   Orages  Brouillard  Fortes neiges  Fortes précipitations  Vent > 20 kt
SIGMETs :   Divers  Orages  Givrage  Turbulence  Onde Orograph.  Cendres Volcan.






- Altitude de l'aérodrome : 656 ft


UUBC - Grabtsevo

DERNIER METAR :
  • 100830Z 36002MPS 330V050 9999 SCT046 22/13 Q1016 R31/CLRD60 NOSIG RMK QFE745/0994

METARs EXPIRÉS :
  • 100800Z 32003MPS 280V360 9999 SCT043 23/12 Q1016 R31/CLRD60 NOSIG RMK QFE745/0994
  • 100730Z 34002MPS 9999 FEW040 23/12 Q1017 R31/CLRD60 NOSIG RMK QFE745/0994
  • 100700Z 02002MPS 330V060 CAVOK 22/13 Q1017 R31/CLRD60 NOSIG RMK QFE745/0994
  • 100630Z 36002MPS 320V060 CAVOK 22/12 Q1017 R31/CLRD60 NOSIG RMK QFE745/0994
  • 100600Z 02002MPS 260V060 CAVOK 21/12 Q1017 R31/CLRD60 NOSIG RMK QFE745/0994

TAF TAF UUBC
Valide du 10 à 09h jusqu'au 10 à 18h UTC


100800Z 1009/1018 34003MPS 9999 SCT040



MET'MAP, la Météo Aéronautique d'un coup d'oeil ! - Copyright ORBIFLY Décembre 2007 - Disclaimer

ORBIFLY MET'MAP TEAM :

Programmation & Développement : Alexandra Zaïnal
Sur une idée originale de : Baudouin d'Aumeries
Assistance à la programmation : Marc-Olivier Méhu
Soutien technique & logistique : Manuel Goepfert

Contact : metmap@orbifly.com




SOURCES & CREDITS :

   NOAA